Terminal Aerodrome Forecast
Issued by NWS

Home | Current Version | Previous Version | Text Only | Print | Product List | Glossary On
Versions: 1 2 3 4 5 6 7 8 9 10 11 12 13 14 15 16 17 18 19 20 21 22 23 24 25 26 27 28
000
FTUS43 KDLH 031600 AAE
TAFHYR
TAF AMD
KHYR 031602Z 0316/0412 19004KT 1/4SM +SN FZFG VV008
      TEMPO 0316/0318 1 1/2SM -SN SCT009 OVC015
     FM032100 30012G20KT 5SM BLSN OVC025
     FM040100 28008KT P6SM SCT035=

USA.gov is the U.S. government's official web portal to all federal, state and local government web resources and services.